メインページ
METAR-TAF:

METAR-TAF

空港 :

ニューアーク・リバティー国際空港

ニューアーク, ニュージャージー州, アメリカ合衆国

緯度: 40-40-57N, 経度: 074-10-10W, 海抜: 5m

現時点の気象観測

当レポートは50分前の05:51(UTC)に作成
の風 12kt
気温 10°C
湿度 76%
気圧 1012 hPa
視程: 16.1km
高度2600ftの雲はほとんどない
高度3500ftの千切れ雲あり
高度4500ftの曇り

METAR: KEWR 040551Z 01012KT 10SM FEW026 BKN035 OVC045 10/06 A2987 RMK AO2 RAB14E36 SLP115 P0000 60000 T01000061 10111 20094 51005

時間: 02:41 (06:41 UTC)

予報

当レポートは1時間21分前の05:20(UTC)に作成
予報は04日の 06時(UTC)から 05日の 12時(UTC)まで有効
の風 12kt
視程: 10km
高度3000ftの曇り
04日の 0800時(UTC)から
の風 10kt
視程: 10km
高度2500ftの曇り
04日の 1500時(UTC)から
北/北東の風 9kt
視程: 10km
高度3500ftの曇り
04日の 2000時(UTC)から
の風 7kt
視程: 10km
高度4000ftの千切れ雲あり
05日の 0000時(UTC)から
南東の風 5kt
視程: 10km
高度4000ftの千切れ雲あり
05日の 0300時(UTC)から
変向風 3kt
視程: 10km
高度3500ftの千切れ雲あり
05日の 0700時(UTC)から
変向風 3kt
視程: 10km
高度3000ftの千切れ雲あり

TAF: KEWR 040520Z 0406/0512 01012KT P6SM OVC030 FM040800 01010KT P6SM OVC025 FM041500 03009KT P6SM OVC035 FM042000 09007KT P6SM BKN040 FM050000 14005KT P6SM BKN040 FM050300 VRB03KT P6SM BKN035 FM050700 VRB03KT P6SM BKN030

4,000以上の空港の気象観測と天気予報(METAR報とTAF報)

利用可能な観測所は地図上に黄色い丸と赤い丸で示す。

丸の上にカーソルを重ねると観測所名を参照できる。

次にクリックすると気象観測と天気予報を参照できる。

マップの切り替え:黒色「×」印の緑ボタンをクリックして拡大、「-」印の緑ボタンをクリックして縮小、緑色の三角印をクリックして隣りの地図に切り替え


METAR-TAF: